sensor_id;sensor_type;location;lat;lon;timestamp;pressure;altitude;pressure_sealevel;temperature;humidity
21300;BME280;10809;49.476;11.016;2022-09-30T00:02:01;97437.41;;;8.41;65.50
21300;BME280;10809;49.476;11.016;2022-09-30T00:04:31;97441.84;;;8.40;65.75
21300;BME280;10809;49.476;11.016;2022-09-30T00:07:02;97441.94;;;8.39;65.73
21300;BME280;10809;49.476;11.016;2022-09-30T00:09:32;97437.59;;;8.38;65.80
21300;BME280;10809;49.476;11.016;2022-09-30T00:12:03;97436.75;;;8.37;65.61
21300;BME280;10809;49.476;11.016;2022-09-30T00:14:33;97433.25;;;8.37;65.97
21300;BME280;10809;49.476;11.016;2022-09-30T00:17:04;97435.06;;;8.36;65.81
21300;BME280;10809;49.476;11.016;2022-09-30T00:19:34;97429.88;;;8.35;66.01
21300;BME280;10809;49.476;11.016;2022-09-30T00:22:05;97433.34;;;8.35;65.79
21300;BME280;10809;49.476;11.016;2022-09-30T00:24:35;97429.88;;;8.35;65.44
21300;BME280;10809;49.476;11.016;2022-09-30T00:27:05;97426.47;;;8.33;65.76
21300;BME280;10809;49.476;11.016;2022-09-30T00:29:36;97425.72;;;8.31;65.41
21300;BME280;10809;49.476;11.016;2022-09-30T00:32:06;97431.94;;;8.30;65.74
21300;BME280;10809;49.476;11.016;2022-09-30T00:34:36;97436.44;;;8.28;65.47
21300;BME280;10809;49.476;11.016;2022-09-30T00:37:07;97429.56;;;8.25;65.56
21300;BME280;10809;49.476;11.016;2022-09-30T00:39:38;97427.94;;;8.23;65.26
21300;BME280;10809;49.476;11.016;2022-09-30T00:42:13;97439.53;;;8.20;65.31
21300;BME280;10809;49.476;11.016;2022-09-30T00:44:51;97445.84;;;8.18;65.15
21300;BME280;10809;49.476;11.016;2022-09-30T00:50:51;97439.31;;;8.09;65.39
21300;BME280;10809;49.476;11.016;2022-09-30T00:53:17;97448.28;;;8.07;65.23
21300;BME280;10809;49.476;11.016;2022-09-30T00:55:53;97444.97;;;8.03;65.10
21300;BME280;10809;49.476;11.016;2022-09-30T00:58:34;97449.59;;;8.00;65.27
21300;BME280;10809;49.476;11.016;2022-09-30T01:01:05;97441.09;;;7.95;65.64
21300;BME280;10809;49.476;11.016;2022-09-30T01:03:38;97447.31;;;7.94;65.22
21300;BME280;10809;49.476;11.016;2022-09-30T01:06:10;97444.88;;;7.91;65.25
21300;BME280;10809;49.476;11.016;2022-09-30T01:08:41;97450.31;;;7.88;65.30
21300;BME280;10809;49.476;11.016;2022-09-30T01:11:12;97455.75;;;7.85;65.26
21300;BME280;10809;49.476;11.016;2022-09-30T01:13:48;97460.25;;;7.82;64.97
21300;BME280;10809;49.476;11.016;2022-09-30T01:16:32;97463.94;;;7.80;65.07
21300;BME280;10809;49.476;11.016;2022-09-30T01:19:29;97464.94;;;7.77;65.46
21300;BME280;10809;49.476;11.016;2022-09-30T01:25:24;97476.69;;;7.72;65.26
21300;BME280;10809;49.476;11.016;2022-09-30T01:31:16;97473.47;;;7.67;65.35
21300;BME280;10809;49.476;11.016;2022-09-30T01:34:10;97471.78;;;7.66;65.54
21300;BME280;10809;49.476;11.016;2022-09-30T01:37:09;97477.97;;;7.65;65.36
21300;BME280;10809;49.476;11.016;2022-09-30T01:40:02;97482.41;;;7.64;65.58
21300;BME280;10809;49.476;11.016;2022-09-30T01:42:59;97491.13;;;7.65;65.71
21300;BME280;10809;49.476;11.016;2022-09-30T01:48:22;97484.09;;;7.65;65.73
21300;BME280;10809;49.476;11.016;2022-09-30T01:51:12;97491.13;;;7.65;65.93
21300;BME280;10809;49.476;11.016;2022-09-30T01:56:44;97490.13;;;7.67;65.95
21300;BME280;10809;49.476;11.016;2022-09-30T01:59:25;97489.19;;;7.68;66.10
21300;BME280;10809;49.476;11.016;2022-09-30T02:02:17;97482.97;;;7.69;66.02
21300;BME280;10809;49.476;11.016;2022-09-30T02:04:59;97483.75;;;7.71;66.20
21300;BME280;10809;49.476;11.016;2022-09-30T02:07:39;97488.06;;;7.72;66.40
21300;BME280;10809;49.476;11.016;2022-09-30T02:11:14;97485.25;;;7.75;66.38
21300;BME280;10809;49.476;11.016;2022-09-30T02:13:31;97483.47;;;7.76;66.38
21300;BME280;10809;49.476;11.016;2022-09-30T02:16:09;97483.38;;;7.77;66.46
21300;BME280;10809;49.476;11.016;2022-09-30T02:18:47;97483.28;;;7.79;66.48
21300;BME280;10809;49.476;11.016;2022-09-30T02:21:23;97473.63;;;7.79;66.42
21300;BME280;10809;49.476;11.016;2022-09-30T02:23:59;97474.47;;;7.80;66.53
21300;BME280;10809;49.476;11.016;2022-09-30T02:26:36;97473.53;;;7.81;66.48
21300;BME280;10809;49.476;11.016;2022-09-30T02:29:14;97485.75;;;7.82;66.48
21300;BME280;10809;49.476;11.016;2022-09-30T02:31:48;97493.66;;;7.82;66.53
21300;BME280;10809;49.476;11.016;2022-09-30T02:34:24;97497.16;;;7.82;66.64
21300;BME280;10809;49.476;11.016;2022-09-30T02:37:06;97503.28;;;7.83;66.39
21300;BME280;10809;49.476;11.016;2022-09-30T02:39:53;97504.19;;;7.82;66.54
21300;BME280;10809;49.476;11.016;2022-09-30T02:42:28;97504.19;;;7.82;66.74
21300;BME280;10809;49.476;11.016;2022-09-30T02:45:06;97506.00;;;7.82;66.41
21300;BME280;10809;49.476;11.016;2022-09-30T02:50:19;97504.28;;;7.80;66.75
21300;BME280;10809;49.476;11.016;2022-09-30T02:53:04;97506.91;;;7.80;66.63
21300;BME280;10809;49.476;11.016;2022-09-30T02:58:50;97512.09;;;7.82;66.75
21300;BME280;10809;49.476;11.016;2022-09-30T03:01:21;97520.97;;;7.81;66.74
21300;BME280;10809;49.476;11.016;2022-09-30T03:04:00;97520.00;;;7.82;66.64
21300;BME280;10809;49.476;11.016;2022-09-30T03:06:34;97524.53;;;7.80;66.58
21300;BME280;10809;49.476;11.016;2022-09-30T03:09:06;97525.47;;;7.79;66.80
21300;BME280;10809;49.476;11.016;2022-09-30T03:11:37;97533.38;;;7.79;66.76
21300;BME280;10809;49.476;11.016;2022-09-30T03:14:40;97540.44;;;7.78;66.64
21300;BME280;10809;49.476;11.016;2022-09-30T03:17:19;97541.34;;;7.77;66.92
21300;BME280;10809;49.476;11.016;2022-09-30T03:20:14;97539.66;;;7.76;66.91
21300;BME280;10809;49.476;11.016;2022-09-30T03:28:34;97537.03;;;7.76;67.11
21300;BME280;10809;49.476;11.016;2022-09-30T03:34:07;97543.22;;;7.75;66.90
21300;BME280;10809;49.476;11.016;2022-09-30T03:39:35;97556.47;;;7.74;67.33
21300;BME280;10809;49.476;11.016;2022-09-30T03:42:27;97557.34;;;7.74;67.03
21300;BME280;10809;49.476;11.016;2022-09-30T03:45:12;97561.66;;;7.75;67.50
21300;BME280;10809;49.476;11.016;2022-09-30T03:47:48;97559.03;;;7.75;67.13
21300;BME280;10809;49.476;11.016;2022-09-30T03:50:22;97559.97;;;7.74;67.19
21300;BME280;10809;49.476;11.016;2022-09-30T03:52:54;97563.56;;;7.73;67.58
21300;BME280;10809;49.476;11.016;2022-09-30T03:55:25;97567.97;;;7.73;67.68
21300;BME280;10809;49.476;11.016;2022-09-30T03:57:56;97568.81;;;7.73;67.62
21300;BME280;10809;49.476;11.016;2022-09-30T04:00:27;97565.25;;;7.74;67.68
21300;BME280;10809;49.476;11.016;2022-09-30T04:02:57;97567.97;;;7.73;67.50
21300;BME280;10809;49.476;11.016;2022-09-30T04:05:28;97569.66;;;7.74;67.63
21300;BME280;10809;49.476;11.016;2022-09-30T04:07:58;97570.50;;;7.74;67.75
21300;BME280;10809;49.476;11.016;2022-09-30T04:10:29;97575.78;;;7.74;67.65
21300;BME280;10809;49.476;11.016;2022-09-30T04:12:59;97580.19;;;7.74;67.63
21300;BME280;10809;49.476;11.016;2022-09-30T04:15:29;97577.47;;;7.75;67.71
21300;BME280;10809;49.476;11.016;2022-09-30T04:18:00;97589.81;;;7.75;67.43
21300;BME280;10809;49.476;11.016;2022-09-30T04:20:31;97577.56;;;7.74;67.44
21300;BME280;10809;49.476;11.016;2022-09-30T04:23:01;97579.38;;;7.73;67.81
21300;BME280;10809;49.476;11.016;2022-09-30T04:25:32;97592.53;;;7.73;67.64
21300;BME280;10809;49.476;11.016;2022-09-30T04:28:03;97593.44;;;7.72;67.81
21300;BME280;10809;49.476;11.016;2022-09-30T04:30:33;97596.94;;;7.73;67.86
21300;BME280;10809;49.476;11.016;2022-09-30T04:33:04;97597.03;;;7.71;67.74
21300;BME280;10809;49.476;11.016;2022-09-30T04:35:37;97600.53;;;7.72;67.63
21300;BME280;10809;49.476;11.016;2022-09-30T04:38:08;97597.13;;;7.70;67.85
21300;BME280;10809;49.476;11.016;2022-09-30T04:40:38;97599.66;;;7.71;67.85
21300;BME280;10809;49.476;11.016;2022-09-30T04:43:09;97602.28;;;7.71;67.78
21300;BME280;10809;49.476;11.016;2022-09-30T04:45:42;97607.56;;;7.71;67.81
21300;BME280;10809;49.476;11.016;2022-09-30T04:48:14;97606.72;;;7.71;67.77
21300;BME280;10809;49.476;11.016;2022-09-30T04:50:45;97611.16;;;7.70;67.84
21300;BME280;10809;49.476;11.016;2022-09-30T04:53:16;97607.66;;;7.70;67.97
21300;BME280;10809;49.476;11.016;2022-09-30T04:55:47;97614.69;;;7.69;68.24
21300;BME280;10809;49.476;11.016;2022-09-30T04:58:17;97613.88;;;7.69;68.15
21300;BME280;10809;49.476;11.016;2022-09-30T05:00:47;97620.03;;;7.68;67.83
21300;BME280;10809;49.476;11.016;2022-09-30T05:03:18;97636.72;;;7.68;67.82
21300;BME280;10809;49.476;11.016;2022-09-30T05:05:49;97632.41;;;7.67;67.78
21300;BME280;10809;49.476;11.016;2022-09-30T05:08:20;97630.66;;;7.66;67.91
21300;BME280;10809;49.476;11.016;2022-09-30T05:11:00;97630.75;;;7.65;67.70
21300;BME280;10809;49.476;11.016;2022-09-30T05:13:33;97627.28;;;7.64;67.67
21300;BME280;10809;49.476;11.016;2022-09-30T05:16:05;97627.28;;;7.64;67.87
21300;BME280;10809;49.476;11.016;2022-09-30T05:18:36;97625.56;;;7.63;67.95
21300;BME280;10809;49.476;11.016;2022-09-30T05:21:08;97627.38;;;7.63;68.13
21300;BME280;10809;49.476;11.016;2022-09-30T05:23:39;97630.00;;;7.63;67.71
21300;BME280;10809;49.476;11.016;2022-09-30T05:26:10;97633.63;;;7.60;67.83
21300;BME280;10809;49.476;11.016;2022-09-30T05:28:40;97638.91;;;7.60;68.05
21300;BME280;10809;49.476;11.016;2022-09-30T05:31:11;97639.00;;;7.59;67.98
21300;BME280;10809;49.476;11.016;2022-09-30T05:33:42;97645.13;;;7.59;67.65
21300;BME280;10809;49.476;11.016;2022-09-30T05:36:15;97637.31;;;7.58;67.89
21300;BME280;10809;49.476;11.016;2022-09-30T05:38:49;97646.97;;;7.57;67.61
21300;BME280;10809;49.476;11.016;2022-09-30T05:41:19;97647.94;;;7.56;67.54
21300;BME280;10809;49.476;11.016;2022-09-30T05:43:50;97643.69;;;7.54;67.42
21300;BME280;10809;49.476;11.016;2022-09-30T05:46:20;97651.75;;;7.51;67.79
21300;BME280;10809;49.476;11.016;2022-09-30T05:48:52;97655.38;;;7.48;67.69
21300;BME280;10809;49.476;11.016;2022-09-30T05:51:24;97664.31;;;7.46;67.91
21300;BME280;10809;49.476;11.016;2022-09-30T05:53:55;97674.84;;;7.46;68.01
21300;BME280;10809;49.476;11.016;2022-09-30T05:56:25;97688.09;;;7.44;67.93
21300;BME280;10809;49.476;11.016;2022-09-30T05:58:56;97686.31;;;7.45;68.15
21300;BME280;10809;49.476;11.016;2022-09-30T06:01:26;97687.22;;;7.44;68.10
21300;BME280;10809;49.476;11.016;2022-09-30T06:03:56;97693.34;;;7.44;68.14
21300;BME280;10809;49.476;11.016;2022-09-30T06:06:27;97698.63;;;7.44;67.98
21300;BME280;10809;49.476;11.016;2022-09-30T06:08:59;97698.63;;;7.44;68.03
21300;BME280;10809;49.476;11.016;2022-09-30T06:11:32;97701.34;;;7.43;68.06
21300;BME280;10809;49.476;11.016;2022-09-30T06:14:04;97698.72;;;7.43;67.90
21300;BME280;10809;49.476;11.016;2022-09-30T06:16:34;97702.28;;;7.42;67.99
21300;BME280;10809;49.476;11.016;2022-09-30T06:19:05;97704.06;;;7.41;68.06
21300;BME280;10809;49.476;11.016;2022-09-30T06:21:35;97704.06;;;7.41;68.20
21300;BME280;10809;49.476;11.016;2022-09-30T06:24:06;97699.72;;;7.40;68.19
21300;BME280;10809;49.476;11.016;2022-09-30T06:26:42;97708.47;;;7.41;68.23
21300;BME280;10809;49.476;11.016;2022-09-30T06:29:12;97712.81;;;7.42;68.38
21300;BME280;10809;49.476;11.016;2022-09-30T06:31:43;97711.94;;;7.41;68.44
21300;BME280;10809;49.476;11.016;2022-09-30T06:34:13;97720.72;;;7.42;68.40
21300;BME280;10809;49.476;11.016;2022-09-30T06:36:44;97717.16;;;7.43;68.37
21300;BME280;10809;49.476;11.016;2022-09-30T06:39:14;97717.16;;;7.43;68.16
21300;BME280;10809;49.476;11.016;2022-09-30T06:41:45;97716.19;;;7.44;68.34
21300;BME280;10809;49.476;11.016;2022-09-30T06:44:27;97710.94;;;7.44;68.61
21300;BME280;10809;49.476;11.016;2022-09-30T06:46:58;97709.16;;;7.44;68.11
21300;BME280;10809;49.476;11.016;2022-09-30T06:49:28;97709.16;;;7.44;68.10
21300;BME280;10809;49.476;11.016;2022-09-30T06:51:59;97717.06;;;7.44;68.53
21300;BME280;10809;49.476;11.016;2022-09-30T06:54:30;97715.22;;;7.46;68.41
21300;BME280;10809;49.476;11.016;2022-09-30T06:57:01;97723.09;;;7.46;68.19
21300;BME280;10809;49.476;11.016;2022-09-30T06:59:31;97730.06;;;7.47;68.40
21300;BME280;10809;49.476;11.016;2022-09-30T07:02:01;97737.03;;;7.48;68.35
21300;BME280;10809;49.476;11.016;2022-09-30T07:04:32;97750.97;;;7.50;68.79
21300;BME280;10809;49.476;11.016;2022-09-30T07:07:02;97745.56;;;7.53;68.39
21300;BME280;10809;49.476;11.016;2022-09-30T07:09:33;97754.22;;;7.55;68.55
21300;BME280;10809;49.476;11.016;2022-09-30T07:12:03;97748.97;;;7.55;68.53
21300;BME280;10809;49.476;11.016;2022-09-30T07:14:35;97749.72;;;7.57;68.29
21300;BME280;10809;49.476;11.016;2022-09-30T07:17:06;97748.88;;;7.57;68.46
21300;BME280;10809;49.476;11.016;2022-09-30T07:19:36;97758.47;;;7.58;68.46
21300;BME280;10809;49.476;11.016;2022-09-30T07:22:06;97757.53;;;7.59;68.54
21300;BME280;10809;49.476;11.016;2022-09-30T07:24:57;97755.59;;;7.62;68.23
21300;BME280;10809;49.476;11.016;2022-09-30T07:27:28;97750.34;;;7.62;68.56
21300;BME280;10809;49.476;11.016;2022-09-30T07:30:01;97756.47;;;7.63;68.48
21300;BME280;10809;49.476;11.016;2022-09-30T07:32:32;97769.56;;;7.64;68.39
21300;BME280;10809;49.476;11.016;2022-09-30T07:35:03;97769.47;;;7.66;68.43
21300;BME280;10809;49.476;11.016;2022-09-30T07:37:34;97772.94;;;7.66;68.59
21300;BME280;10809;49.476;11.016;2022-09-30T07:40:06;97777.38;;;7.66;68.38
21300;BME280;10809;49.476;11.016;2022-09-30T07:42:38;97778.28;;;7.65;68.19
21300;BME280;10809;49.476;11.016;2022-09-30T07:45:14;97783.56;;;7.65;68.27
21300;BME280;10809;49.476;11.016;2022-09-30T07:47:48;97783.47;;;7.66;68.65
21300;BME280;10809;49.476;11.016;2022-09-30T07:50:19;97785.19;;;7.67;69.00
21300;BME280;10809;49.476;11.016;2022-09-30T07:52:52;97790.22;;;7.72;69.07
21300;BME280;10809;49.476;11.016;2022-09-30T07:55:22;97803.25;;;7.75;69.19
21300;BME280;10809;49.476;11.016;2022-09-30T07:57:52;97810.03;;;7.79;69.00
21300;BME280;10809;49.476;11.016;2022-09-30T08:00:23;97819.50;;;7.83;68.94
21300;BME280;10809;49.476;11.016;2022-09-30T08:02:53;97815.84;;;7.86;69.02
21300;BME280;10809;49.476;11.016;2022-09-30T08:05:23;97817.47;;;7.88;69.27
21300;BME280;10809;49.476;11.016;2022-09-30T08:07:54;97810.25;;;7.92;68.93
21300;BME280;10809;49.476;11.016;2022-09-30T08:10:24;97816.16;;;7.97;68.81
21300;BME280;10809;49.476;11.016;2022-09-30T08:12:54;97816.06;;;7.98;68.93
21300;BME280;10809;49.476;11.016;2022-09-30T08:15:25;97816.75;;;8.02;68.85
21300;BME280;10809;49.476;11.016;2022-09-30T08:17:55;97805.28;;;8.03;69.04
21300;BME280;10809;49.476;11.016;2022-09-30T08:20:26;97807.75;;;8.06;68.80
21300;BME280;10809;49.476;11.016;2022-09-30T08:22:56;97806.72;;;8.08;69.13
21300;BME280;10809;49.476;11.016;2022-09-30T08:25:27;97821.50;;;8.11;68.98
21300;BME280;10809;49.476;11.016;2022-09-30T08:27:58;97815.16;;;8.15;69.17
21300;BME280;10809;49.476;11.016;2022-09-30T08:30:28;97816.78;;;8.17;69.05
21300;BME280;10809;49.476;11.016;2022-09-30T08:32:58;97828.84;;;8.21;69.31
21300;BME280;10809;49.476;11.016;2022-09-30T08:35:29;97819.94;;;8.24;68.47
21300;BME280;10809;49.476;11.016;2022-09-30T08:37:59;97833.03;;;8.25;69.02
21300;BME280;10809;49.476;11.016;2022-09-30T08:40:31;97836.44;;;8.27;69.04
21300;BME280;10809;49.476;11.016;2022-09-30T08:46:26;97830.78;;;8.35;69.29
21300;BME280;10809;49.476;11.016;2022-09-30T08:51:45;97830.19;;;8.45;69.46
21300;BME280;10809;49.476;11.016;2022-09-30T08:54:22;97829.78;;;8.53;69.09
21300;BME280;10809;49.476;11.016;2022-09-30T08:56:54;97834.72;;;8.59;69.82
21300;BME280;10809;49.476;11.016;2022-09-30T08:59:43;97838.66;;;8.67;69.46
21300;BME280;10809;49.476;11.016;2022-09-30T09:02:20;97855.81;;;8.74;69.45
21300;BME280;10809;49.476;11.016;2022-09-30T09:04:52;97851.94;;;8.81;69.28
21300;BME280;10809;49.476;11.016;2022-09-30T09:10:14;97852.09;;;8.94;69.07
21300;BME280;10809;49.476;11.016;2022-09-30T09:13:10;97864.97;;;9.00;68.83
21300;BME280;10809;49.476;11.016;2022-09-30T09:21:43;97867.91;;;9.09;68.44
21300;BME280;10809;49.476;11.016;2022-09-30T09:24:40;97865.97;;;9.13;68.83
21300;BME280;10809;49.476;11.016;2022-09-30T09:32:34;97865.09;;;9.28;68.94
21300;BME280;10809;49.476;11.016;2022-09-30T09:35:13;97861.16;;;9.35;68.67
21300;BME280;10809;49.476;11.016;2022-09-30T09:43:49;97858.00;;;9.58;68.93
21300;BME280;10809;49.476;11.016;2022-09-30T09:46:28;97860.09;;;9.67;68.86
21300;BME280;10809;49.476;11.016;2022-09-30T09:52:12;97852.31;;;9.80;68.66
21300;BME280;10809;49.476;11.016;2022-09-30T09:54:39;97849.31;;;9.86;68.51
21300;BME280;10809;49.476;11.016;2022-09-30T09:57:12;97848.09;;;9.91;68.34
21300;BME280;10809;49.476;11.016;2022-09-30T10:00:01;97851.13;;;9.99;68.93
21300;BME280;10809;49.476;11.016;2022-09-30T10:05:31;97852.84;;;10.14;68.68
21300;BME280;10809;49.476;11.016;2022-09-30T10:08:20;97859.50;;;10.21;68.16
21300;BME280;10809;49.476;11.016;2022-09-30T10:10:55;97860.03;;;10.26;68.09
21300;BME280;10809;49.476;11.016;2022-09-30T10:13:47;97858.84;;;10.32;68.55
21300;BME280;10809;49.476;11.016;2022-09-30T10:16:32;97854.84;;;10.39;68.57
21300;BME280;10809;49.476;11.016;2022-09-30T10:19:24;97847.28;;;10.47;68.54
21300;BME280;10809;49.476;11.016;2022-09-30T10:24:39;97847.28;;;10.61;68.06
21300;BME280;10809;49.476;11.016;2022-09-30T10:27:26;97840.75;;;10.66;68.31
21300;BME280;10809;49.476;11.016;2022-09-30T10:29:57;97840.16;;;10.75;68.52
21300;BME280;10809;49.476;11.016;2022-09-30T10:32:28;97837.88;;;10.83;68.60
21300;BME280;10809;49.476;11.016;2022-09-30T10:35:05;97834.53;;;10.94;68.71
21300;BME280;10809;49.476;11.016;2022-09-30T10:37:50;97835.44;;;11.07;69.03
21300;BME280;10809;49.476;11.016;2022-09-30T10:40:25;97839.81;;;11.20;69.10
21300;BME280;10809;49.476;11.016;2022-09-30T10:42:57;97835.47;;;11.34;68.38
21300;BME280;10809;49.476;11.016;2022-09-30T10:45:31;97830.31;;;11.45;68.03
21300;BME280;10809;49.476;11.016;2022-09-30T10:48:06;97837.66;;;11.54;67.79
21300;BME280;10809;49.476;11.016;2022-09-30T10:50:49;97836.19;;;11.62;67.68
21300;BME280;10809;49.476;11.016;2022-09-30T10:53:23;97839.28;;;11.69;67.18
21300;BME280;10809;49.476;11.016;2022-09-30T10:55:55;97837.03;;;11.75;67.21
21300;BME280;10809;49.476;11.016;2022-09-30T10:58:45;97830.47;;;11.81;66.96
21300;BME280;10809;49.476;11.016;2022-09-30T11:01:29;97835.47;;;11.85;67.10
21300;BME280;10809;49.476;11.016;2022-09-30T11:04:06;97836.09;;;11.89;66.45
21300;BME280;10809;49.476;11.016;2022-09-30T11:06:41;97843.00;;;11.91;65.80
21300;BME280;10809;49.476;11.016;2022-09-30T11:09:21;97843.78;;;11.93;66.13
21300;BME280;10809;49.476;11.016;2022-09-30T11:11:59;97843.47;;;11.98;65.80
21300;BME280;10809;49.476;11.016;2022-09-30T11:15:05;97848.56;;;12.01;66.21
21300;BME280;10809;49.476;11.016;2022-09-30T11:17:58;97849.06;;;12.06;65.36
21300;BME280;10809;49.476;11.016;2022-09-30T11:20:34;97844.50;;;12.08;64.42
21300;BME280;10809;49.476;11.016;2022-09-30T11:23:35;97850.25;;;12.14;65.05
21300;BME280;10809;49.476;11.016;2022-09-30T11:26:19;97851.63;;;12.20;65.29
21300;BME280;10809;49.476;11.016;2022-09-30T11:29:26;97848.31;;;12.29;65.05
21300;BME280;10809;49.476;11.016;2022-09-30T11:35:18;97842.72;;;12.46;64.79
21300;BME280;10809;49.476;11.016;2022-09-30T11:38:06;97845.91;;;12.51;64.87
21300;BME280;10809;49.476;11.016;2022-09-30T11:46:27;97844.06;;;12.64;63.72
21300;BME280;10809;49.476;11.016;2022-09-30T11:49:43;97835.66;;;12.70;64.37
21300;BME280;10809;49.476;11.016;2022-09-30T11:55:25;97833.00;;;12.82;63.35
21300;BME280;10809;49.476;11.016;2022-09-30T11:58:12;97827.94;;;12.90;63.31
21300;BME280;10809;49.476;11.016;2022-09-30T12:00:51;97823.16;;;12.95;63.07
21300;BME280;10809;49.476;11.016;2022-09-30T12:03:33;97822.72;;;13.01;63.29
21300;BME280;10809;49.476;11.016;2022-09-30T12:06:11;97815.13;;;13.08;63.34
21300;BME280;10809;49.476;11.016;2022-09-30T12:08:48;97822.66;;;13.14;63.01
21300;BME280;10809;49.476;11.016;2022-09-30T12:11:36;97819.78;;;13.17;62.21
21300;BME280;10809;49.476;11.016;2022-09-30T12:14:17;97821.34;;;13.20;62.57
21300;BME280;10809;49.476;11.016;2022-09-30T12:16:50;97823.06;;;13.21;62.60
21300;BME280;10809;49.476;11.016;2022-09-30T12:19:28;97821.25;;;13.21;62.55
21300;BME280;10809;49.476;11.016;2022-09-30T12:22:13;97822.84;;;13.24;63.13
21300;BME280;10809;49.476;11.016;2022-09-30T12:24:45;97833.25;;;13.27;62.37
21300;BME280;10809;49.476;11.016;2022-09-30T12:27:43;97826.63;;;13.32;62.96
21300;BME280;10809;49.476;11.016;2022-09-30T12:30:18;97819.28;;;13.36;62.74
21300;BME280;10809;49.476;11.016;2022-09-30T12:36:37;97822.31;;;13.42;62.41
21300;BME280;10809;49.476;11.016;2022-09-30T12:42:21;97821.47;;;13.42;61.79
21300;BME280;10809;49.476;11.016;2022-09-30T12:47:58;97822.97;;;13.46;61.66
21300;BME280;10809;49.476;11.016;2022-09-30T12:50:36;97821.91;;;13.48;61.36
21300;BME280;10809;49.476;11.016;2022-09-30T12:53:24;97820.81;;;13.51;61.53
21300;BME280;10809;49.476;11.016;2022-09-30T12:56:07;97816.13;;;13.54;61.63
21300;BME280;10809;49.476;11.016;2022-09-30T12:58:46;97823.13;;;13.55;61.39
21300;BME280;10809;49.476;11.016;2022-09-30T13:01:29;97820.34;;;13.57;60.70
21300;BME280;10809;49.476;11.016;2022-09-30T13:12:14;97828.22;;;13.58;60.63
21300;BME280;10809;49.476;11.016;2022-09-30T13:14:41;97828.84;;;13.62;60.09
21300;BME280;10809;49.476;11.016;2022-09-30T13:19:47;97839.25;;;13.65;59.61
21300;BME280;10809;49.476;11.016;2022-09-30T13:33:05;97817.59;;;13.58;59.80
21300;BME280;10809;49.476;11.016;2022-09-30T13:38:20;97818.91;;;13.64;59.87
21300;BME280;10809;49.476;11.016;2022-09-30T13:41:15;97830.06;;;13.69;60.06
21300;BME280;10809;49.476;11.016;2022-09-30T13:43:57;97829.38;;;13.78;60.06
21300;BME280;10809;49.476;11.016;2022-09-30T13:46:50;97828.56;;;13.88;59.92
21300;BME280;10809;49.476;11.016;2022-09-30T13:49:25;97832.94;;;14.00;60.14
21300;BME280;10809;49.476;11.016;2022-09-30T13:52:02;97834.75;;;14.11;59.28
21300;BME280;10809;49.476;11.016;2022-09-30T13:54:38;97828.84;;;14.18;59.10
21300;BME280;10809;49.476;11.016;2022-09-30T13:57:24;97836.22;;;14.26;59.07
21300;BME280;10809;49.476;11.016;2022-09-30T14:00:06;97830.56;;;14.30;59.27
21300;BME280;10809;49.476;11.016;2022-09-30T14:08:17;97849.69;;;14.35;58.62
21300;BME280;10809;49.476;11.016;2022-09-30T14:11:03;97844.38;;;14.35;57.75
21300;BME280;10809;49.476;11.016;2022-09-30T14:13:45;97837.47;;;14.33;58.13
21300;BME280;10809;49.476;11.016;2022-09-30T14:22:03;97839.63;;;14.28;57.30
21300;BME280;10809;49.476;11.016;2022-09-30T14:24:35;97838.06;;;14.25;56.87
21300;BME280;10809;49.476;11.016;2022-09-30T14:32:30;97841.91;;;14.21;57.56
21300;BME280;10809;49.476;11.016;2022-09-30T14:35:05;97836.72;;;14.20;57.32
21300;BME280;10809;49.476;11.016;2022-09-30T14:37:40;97835.88;;;14.19;57.69
21300;BME280;10809;49.476;11.016;2022-09-30T14:40:16;97842.91;;;14.20;57.72
21300;BME280;10809;49.476;11.016;2022-09-30T14:42:47;97834.91;;;14.20;57.20
21300;BME280;10809;49.476;11.016;2022-09-30T14:45:24;97842.66;;;14.23;57.50
21300;BME280;10809;49.476;11.016;2022-09-30T14:48:18;97845.31;;;14.23;57.25
21300;BME280;10809;49.476;11.016;2022-09-30T14:50:54;97840.75;;;14.25;57.45
21300;BME280;10809;49.476;11.016;2022-09-30T14:53:34;97841.44;;;14.27;56.90
21300;BME280;10809;49.476;11.016;2022-09-30T14:56:19;97847.75;;;14.26;57.40
21300;BME280;10809;49.476;11.016;2022-09-30T14:58:51;97859.25;;;14.27;56.74
21300;BME280;10809;49.476;11.016;2022-09-30T15:01:23;97854.75;;;14.27;56.46
21300;BME280;10809;49.476;11.016;2022-09-30T15:04:08;97852.09;;;14.27;56.95
21300;BME280;10809;49.476;11.016;2022-09-30T15:06:48;97849.44;;;14.27;56.68
21300;BME280;10809;49.476;11.016;2022-09-30T15:09:34;97850.28;;;14.28;56.50
21300;BME280;10809;49.476;11.016;2022-09-30T15:17:17;97856.47;;;14.28;56.20
21300;BME280;10809;49.476;11.016;2022-09-30T15:19:48;97855.63;;;14.28;56.34
21300;BME280;10809;49.476;11.016;2022-09-30T15:22:20;97854.63;;;14.29;56.13
21300;BME280;10809;49.476;11.016;2022-09-30T15:24:51;97856.47;;;14.28;55.78
21300;BME280;10809;49.476;11.016;2022-09-30T15:27:25;97859.03;;;14.30;56.33
21300;BME280;10809;49.476;11.016;2022-09-30T15:30:02;97855.38;;;14.31;56.27
21300;BME280;10809;49.476;11.016;2022-09-30T15:32:34;97865.06;;;14.32;55.91
21300;BME280;10809;49.476;11.016;2022-09-30T15:35:11;97851.75;;;14.32;56.17
21300;BME280;10809;49.476;11.016;2022-09-30T15:37:43;97853.56;;;14.31;56.08
21300;BME280;10809;49.476;11.016;2022-09-30T15:40:17;97857.31;;;14.29;55.82
21300;BME280;10809;49.476;11.016;2022-09-30T15:43:09;97850.53;;;14.25;55.89
21300;BME280;10809;49.476;11.016;2022-09-30T15:45:42;97858.88;;;14.20;55.84
21300;BME280;10809;49.476;11.016;2022-09-30T15:50:57;97857.91;;;14.10;55.51
21300;BME280;10809;49.476;11.016;2022-09-30T15:56:29;97856.19;;;13.98;56.06
21300;BME280;10809;49.476;11.016;2022-09-30T15:59:11;97863.53;;;13.95;56.05
21300;BME280;10809;49.476;11.016;2022-09-30T16:01:49;97857.72;;;13.90;55.98
21300;BME280;10809;49.476;11.016;2022-09-30T16:14:34;97864.78;;;13.67;55.88
21300;BME280;10809;49.476;11.016;2022-09-30T16:17:15;97861.59;;;13.62;55.74